Time,TemperatureF,DewpointF,PressureIn,WindDirection,WindDirectionDegrees,WindSpeedMPH,WindSpeedGustMPH,Humidity,HourlyPrecipIn,Conditions,Clouds,dailyrainin,SoftwareType,DateUTC
2017-12-13 00:11:00,37.6,34.9,30.18,West,277,5.0,9.0,90,0.00,,,0.01,Wunderground v.1.15,2017-12-12 23:11:00,
2017-12-13 00:21:00,37.2,34.5,30.19,WNW,298,7.0,7.0,90,0.00,,,0.01,Wunderground v.1.15,2017-12-12 23:21:00,
2017-12-13 00:31:00,37.2,34.8,30.18,NW,306,4.0,4.0,91,0.00,,,0.01,Wunderground v.1.15,2017-12-12 23:31:00,
2017-12-13 00:41:00,36.8,34.4,30.18,NW,320,4.0,7.0,91,0.00,,,0.01,Wunderground v.1.15,2017-12-12 23:41:00,
2017-12-13 00:51:00,36.5,34.1,30.18,WNW,296,4.0,4.0,91,0.00,,,0.01,Wunderground v.1.15,2017-12-12 23:51:00,
2017-12-13 01:01:00,36.3,33.9,30.18,WNW,301,3.0,3.0,91,0.00,,,0.00,Wunderground v.1.15,2017-12-13 00:01:00,
2017-12-13 01:11:00,36.2,34.1,30.18,West,273,4.0,7.0,92,0.00,,,0.00,Wunderground v.1.15,2017-12-13 00:11:00,
2017-12-13 01:21:00,36.2,34.1,30.19,WNW,303,4.0,8.0,92,0.00,,,0.00,Wunderground v.1.15,2017-12-13 00:21:00,
2017-12-13 01:31:00,36.7,34.6,30.19,WNW,301,6.0,6.0,92,0.00,,,0.00,Wunderground v.1.15,2017-12-13 00:31:00,
2017-12-13 01:41:00,37.4,35.3,30.18,NW,309,4.0,4.0,92,0.00,,,0.00,Wunderground v.1.15,2017-12-13 00:41:00,
2017-12-13 01:51:00,37.8,35.4,30.19,NW,309,0.0,7.0,91,0.00,,,0.00,Wunderground v.1.15,2017-12-13 00:51:00,
2017-12-13 02:01:00,37.7,35.3,30.19,WNW,296,3.0,5.0,91,0.00,,,0.00,Wunderground v.1.15,2017-12-13 01:01:00,
2017-12-13 02:11:00,37.7,35.0,30.19,WNW,299,4.0,7.0,90,0.00,,,0.00,Wunderground v.1.15,2017-12-13 01:11:00,
2017-12-13 02:21:00,37.9,35.2,30.19,NW,306,5.0,5.0,90,0.00,,,0.00,Wunderground v.1.15,2017-12-13 01:21:00,
2017-12-13 02:31:00,37.7,35.0,30.20,WNW,287,4.0,7.0,90,0.00,,,0.00,Wunderground v.1.15,2017-12-13 01:31:00,
2017-12-13 02:41:00,37.3,34.6,30.20,WNW,287,3.0,7.0,90,0.00,,,0.01,Wunderground v.1.15,2017-12-13 01:41:00,
2017-12-13 02:51:00,36.9,34.2,30.20,WNW,287,2.0,5.0,90,0.00,,,0.01,Wunderground v.1.15,2017-12-13 01:51:00,
2017-12-13 03:01:00,36.0,33.4,30.20,WNW,287,4.0,7.0,90,0.00,,,0.01,Wunderground v.1.15,2017-12-13 02:01:00,
2017-12-13 03:11:00,36.1,33.7,30.20,WNW,292,4.0,4.0,91,0.00,,,0.01,Wunderground v.1.15,2017-12-13 02:11:00,
2017-12-13 03:21:00,36.7,34.3,30.20,WNW,292,1.0,8.0,91,0.00,,,0.01,Wunderground v.1.15,2017-12-13 02:21:00,
2017-12-13 03:31:00,36.7,34.3,30.20,WNW,290,5.0,6.0,91,0.00,,,0.01,Wunderground v.1.15,2017-12-13 02:31:00,
2017-12-13 03:41:00,37.7,35.6,30.20,WNW,300,6.0,6.0,92,0.00,,,0.01,Wunderground v.1.15,2017-12-13 02:41:00,
2017-12-13 03:51:00,39.1,36.1,30.20,WNW,303,6.0,6.0,89,0.00,,,0.01,Wunderground v.1.15,2017-12-13 02:51:00,
2017-12-13 04:01:00,38.3,35.1,30.20,West,280,5.0,5.0,88,0.00,,,0.01,Wunderground v.1.15,2017-12-13 03:01:00,
2017-12-13 04:21:00,37.0,34.3,30.20,NW,304,6.0,6.0,90,0.00,,,0.01,Wunderground v.1.15,2017-12-13 03:21:00,
2017-12-13 04:31:00,37.9,35.2,30.20,NW,311,6.0,9.0,90,0.00,,,0.01,Wunderground v.1.15,2017-12-13 03:31:00,
2017-12-13 04:41:00,37.8,34.8,30.20,NW,304,6.0,12.0,89,0.00,,,0.01,Wunderground v.1.15,2017-12-13 03:41:00,
2017-12-13 04:51:00,37.6,34.7,30.20,NW,325,6.0,6.0,89,0.00,,,0.01,Wunderground v.1.15,2017-12-13 03:51:00,
2017-12-13 05:01:00,38.5,35.3,30.20,NW,311,5.0,9.0,88,0.00,,,0.01,Wunderground v.1.15,2017-12-13 04:01:00,
2017-12-13 05:11:00,38.0,34.5,30.19,NW,315,4.0,7.0,87,0.00,,,0.01,Wunderground v.1.15,2017-12-13 04:11:00,
2017-12-13 05:21:00,37.9,34.4,30.19,WNW,298,3.0,7.0,87,0.00,,,0.01,Wunderground v.1.15,2017-12-13 04:21:00,
2017-12-13 05:31:00,38.3,35.1,30.19,WNW,295,3.0,7.0,88,0.00,,,0.01,Wunderground v.1.15,2017-12-13 04:31:00,
2017-12-13 05:41:00,36.7,33.5,30.19,NW,311,7.0,9.0,88,0.00,,,0.01,Wunderground v.1.15,2017-12-13 04:41:00,
2017-12-13 05:51:00,36.2,33.3,30.19,WNW,293,6.0,6.0,89,0.00,,,0.01,Wunderground v.1.15,2017-12-13 04:51:00,
2017-12-13 06:11:00,37.2,34.3,30.19,NW,308,5.0,8.0,89,0.00,,,0.01,Wunderground v.1.15,2017-12-13 05:11:00,
2017-12-13 06:21:00,38.2,34.4,30.19,WNW,295,7.0,9.0,86,0.00,,,0.01,Wunderground v.1.15,2017-12-13 05:21:00,
2017-12-13 06:31:00,38.7,34.6,30.20,NW,312,6.0,6.0,85,0.00,,,0.01,Wunderground v.1.15,2017-12-13 05:31:00,
2017-12-13 06:41:00,39.1,34.4,30.20,West,274,5.0,5.0,83,0.00,,,0.01,Wunderground v.1.15,2017-12-13 05:41:00,
2017-12-13 06:51:00,39.1,34.1,30.20,NW,304,5.0,5.0,82,0.00,,,0.01,Wunderground v.1.15,2017-12-13 05:51:00,
2017-12-13 07:01:00,39.1,34.1,30.21,WNW,296,5.0,9.0,82,0.00,,,0.01,Wunderground v.1.15,2017-12-13 06:01:00,
2017-12-13 07:11:00,38.0,33.3,30.21,NW,306,7.0,9.0,83,0.00,,,0.01,Wunderground v.1.15,2017-12-13 06:11:00,
2017-12-13 07:21:00,38.1,33.7,30.21,WNW,303,8.0,8.0,84,0.00,,,0.01,Wunderground v.1.15,2017-12-13 06:21:00,
2017-12-13 07:31:00,37.8,33.4,30.21,NW,311,7.0,7.0,84,0.00,,,0.01,Wunderground v.1.15,2017-12-13 06:31:00,
2017-12-13 07:41:00,37.4,33.0,30.21,WNW,294,5.0,11.0,84,0.00,,,0.01,Wunderground v.1.15,2017-12-13 06:41:00,
2017-12-13 07:51:00,37.4,33.0,30.21,WNW,286,6.0,6.0,84,0.00,,,0.01,Wunderground v.1.15,2017-12-13 06:51:00,
2017-12-13 08:01:00,37.3,32.6,30.21,WNW,287,5.0,9.0,83,0.00,,,0.01,Wunderground v.1.15,2017-12-13 07:01:00,
2017-12-13 08:11:00,36.2,32.1,30.21,West,271,4.0,4.0,85,0.00,,,0.01,Wunderground v.1.15,2017-12-13 07:11:00,
2017-12-13 08:21:00,35.3,31.5,30.21,NW,309,4.0,7.0,86,0.00,,,0.01,Wunderground v.1.15,2017-12-13 07:21:00,
2017-12-13 08:31:00,35.9,32.4,30.21,WNW,294,5.0,7.0,87,0.00,,,0.01,Wunderground v.1.15,2017-12-13 07:31:00,
2017-12-13 08:41:00,37.3,32.9,30.22,NW,304,5.0,5.0,84,0.00,,,0.01,Wunderground v.1.15,2017-12-13 07:41:00,
2017-12-13 08:51:00,37.4,32.7,30.22,WNW,286,4.0,8.0,83,0.00,,,0.01,Wunderground v.1.15,2017-12-13 07:51:00,
2017-12-13 09:01:00,37.1,32.4,30.22,West,277,4.0,6.0,83,0.00,,,0.01,Wunderground v.1.15,2017-12-13 08:01:00,
2017-12-13 09:11:00,36.4,32.3,30.22,West,271,5.0,5.0,85,0.00,,,0.01,Wunderground v.1.15,2017-12-13 08:11:00,
2017-12-13 09:21:00,37.3,33.2,30.23,WNW,293,4.0,8.0,85,0.00,,,0.01,Wunderground v.1.15,2017-12-13 08:21:00,
2017-12-13 09:41:00,39.3,34.0,30.23,NW,321,4.0,4.0,81,0.00,,,0.01,Wunderground v.1.15,2017-12-13 08:41:00,
2017-12-13 09:51:00,40.1,34.4,30.22,NW,321,0.0,8.0,80,0.00,,,0.01,Wunderground v.1.15,2017-12-13 08:51:00,
2017-12-13 10:01:00,40.6,34.9,30.23,NW,319,0.0,4.0,80,0.00,,,0.01,Wunderground v.1.15,2017-12-13 09:01:00,
2017-12-13 10:11:00,40.4,35.0,30.23,NW,320,1.0,1.0,81,0.00,,,0.01,Wunderground v.1.15,2017-12-13 09:11:00,
2017-12-13 10:21:00,40.7,35.3,30.23,West,280,2.0,4.0,81,0.00,,,0.01,Wunderground v.1.15,2017-12-13 09:21:00,
2017-12-13 10:31:00,41.3,35.9,30.22,West,280,0.0,5.0,81,0.00,,,0.01,Wunderground v.1.15,2017-12-13 09:31:00,
2017-12-13 10:41:00,42.4,36.7,30.22,West,280,0.0,4.0,80,0.00,,,0.01,Wunderground v.1.15,2017-12-13 09:41:00,
2017-12-13 10:51:00,42.4,36.7,30.22,West,278,3.0,3.0,80,0.00,,,0.01,Wunderground v.1.15,2017-12-13 09:51:00,
2017-12-13 11:01:00,42.5,36.8,30.22,West,272,2.0,2.0,80,0.00,,,0.01,Wunderground v.1.15,2017-12-13 10:01:00,
2017-12-13 11:11:00,43.1,36.7,30.21,West,272,0.0,7.0,78,0.00,,,0.01,Wunderground v.1.15,2017-12-13 10:11:00,
2017-12-13 11:21:00,44.2,36.8,30.21,West,272,0.0,3.0,75,0.00,,,0.01,Wunderground v.1.15,2017-12-13 10:21:00,
2017-12-13 11:31:00,44.7,37.6,30.20,NW,314,1.0,1.0,76,0.00,,,0.01,Wunderground v.1.15,2017-12-13 10:31:00,
2017-12-13 11:41:00,44.8,37.4,30.19,NW,314,0.0,5.0,75,0.00,,,0.01,Wunderground v.1.15,2017-12-13 10:41:00,
2017-12-13 11:51:00,45.1,37.3,30.19,NW,314,0.0,0.0,74,0.00,,,0.01,Wunderground v.1.15,2017-12-13 10:51:00,
2017-12-13 12:01:00,45.4,37.9,30.19,NW,313,0.0,3.0,75,0.00,,,0.01,Wunderground v.1.15,2017-12-13 11:01:00,
2017-12-13 12:11:00,46.3,36.3,30.17,West,280,1.0,6.0,68,0.00,,,0.01,Wunderground v.1.15,2017-12-13 11:11:00,
2017-12-13 12:21:00,48.1,35.7,30.17,NW,314,8.0,8.0,62,0.00,,,0.01,Wunderground v.1.15,2017-12-13 11:21:00,
2017-12-13 12:31:00,48.8,36.4,30.17,NNW,345,3.0,3.0,62,0.00,,,0.01,Wunderground v.1.15,2017-12-13 11:31:00,
2017-12-13 12:41:00,49.5,36.6,30.15,WNW,303,0.0,14.0,61,0.00,,,0.01,Wunderground v.1.15,2017-12-13 11:41:00,
2017-12-13 12:51:00,51.5,35.4,30.15,WNW,292,11.0,11.0,54,0.00,,,0.01,Wunderground v.1.15,2017-12-13 11:51:00,
2017-12-13 13:01:00,52.1,35.5,30.15,SW,223,14.0,14.0,53,0.00,,,0.01,Wunderground v.1.15,2017-12-13 12:01:00,
2017-12-13 13:11:00,52.5,35.4,30.15,West,269,16.0,16.0,52,0.00,,,0.01,Wunderground v.1.15,2017-12-13 12:11:00,
2017-12-13 13:21:00,52.4,34.8,30.14,WSW,237,14.0,26.0,51,0.00,,,0.01,Wunderground v.1.15,2017-12-13 12:21:00,
2017-12-13 13:31:00,52.4,35.3,30.14,SW,214,13.0,26.0,52,0.00,,,0.01,Wunderground v.1.15,2017-12-13 12:31:00,
2017-12-13 13:41:00,52.3,35.7,30.14,West,264,14.0,27.0,53,0.00,,,0.01,Wunderground v.1.15,2017-12-13 12:41:00,
2017-12-13 13:51:00,52.3,36.1,30.13,SW,221,14.0,14.0,54,0.00,,,0.01,Wunderground v.1.15,2017-12-13 12:51:00,
2017-12-13 14:01:00,52.3,35.7,30.13,SSW,200,13.0,13.0,53,0.00,,,0.01,Wunderground v.1.15,2017-12-13 13:01:00,
2017-12-13 14:11:00,52.1,35.9,30.13,West,265,10.0,10.0,54,0.00,,,0.01,Wunderground v.1.15,2017-12-13 13:11:00,
2017-12-13 14:21:00,52.1,35.9,30.13,SSW,201,9.0,21.0,54,0.00,,,0.01,Wunderground v.1.15,2017-12-13 13:21:00,
2017-12-13 14:31:00,52.2,36.0,30.13,WSW,255,12.0,20.0,54,0.00,,,0.01,Wunderground v.1.15,2017-12-13 13:31:00,
2017-12-13 14:41:00,52.3,36.1,30.12,SW,231,12.0,22.0,54,0.00,,,0.01,Wunderground v.1.15,2017-12-13 13:41:00,
2017-12-13 14:51:00,52.3,36.1,30.12,WSW,241,10.0,10.0,54,0.00,,,0.01,Wunderground v.1.15,2017-12-13 13:51:00,
2017-12-13 15:01:00,52.3,36.1,30.11,SW,229,10.0,21.0,54,0.00,,,0.01,Wunderground v.1.15,2017-12-13 14:01:00,
2017-12-13 15:11:00,52.3,36.1,30.12,SSW,194,10.0,19.0,54,0.00,,,0.01,Wunderground v.1.15,2017-12-13 14:11:00,
2017-12-13 15:21:00,52.7,36.0,30.11,SW,222,9.0,19.0,53,0.00,,,0.01,Wunderground v.1.15,2017-12-13 14:21:00,
2017-12-13 15:31:00,52.6,35.9,30.12,SW,221,11.0,11.0,53,0.00,,,0.01,Wunderground v.1.15,2017-12-13 14:31:00,
2017-12-13 15:41:00,52.3,36.1,30.12,SW,224,9.0,9.0,54,0.00,,,0.01,Wunderground v.1.15,2017-12-13 14:41:00,
2017-12-13 15:51:00,52.3,36.1,30.11,SSW,198,9.0,16.0,54,0.00,,,0.01,Wunderground v.1.15,2017-12-13 14:51:00,
2017-12-13 16:01:00,52.2,36.0,30.11,SSE,159,10.0,17.0,54,0.00,,,0.01,Wunderground v.1.15,2017-12-13 15:01:00,
2017-12-13 16:11:00,52.2,36.0,30.11,WSW,249,9.0,18.0,54,0.00,,,0.01,Wunderground v.1.15,2017-12-13 15:11:00,
2017-12-13 16:21:00,52.1,35.9,30.10,SSW,203,9.0,18.0,54,0.00,,,0.01,Wunderground v.1.15,2017-12-13 15:21:00,
2017-12-13 16:31:00,51.9,35.8,30.10,WSW,250,8.0,17.0,54,0.00,,,0.01,Wunderground v.1.15,2017-12-13 15:31:00,
2017-12-13 16:41:00,51.7,35.6,30.10,WSW,250,8.0,17.0,54,0.00,,,0.01,Wunderground v.1.15,2017-12-13 15:41:00,
2017-12-13 16:51:00,51.5,35.9,30.10,West,271,8.0,8.0,55,0.00,,,0.01,Wunderground v.1.15,2017-12-13 15:51:00,
2017-12-13 17:01:00,51.4,35.8,30.11,SSW,200,5.0,14.0,55,0.00,,,0.01,Wunderground v.1.15,2017-12-13 16:01:00,
2017-12-13 17:11:00,51.3,35.7,30.11,SSW,209,3.0,11.0,55,0.00,,,0.01,Wunderground v.1.15,2017-12-13 16:11:00,
2017-12-13 17:21:00,51.2,36.0,30.11,SSW,211,4.0,4.0,56,0.00,,,0.01,Wunderground v.1.15,2017-12-13 16:21:00,
2017-12-13 17:31:00,51.1,35.5,30.10,SW,223,5.0,11.0,55,0.00,,,0.01,Wunderground v.1.15,2017-12-13 16:31:00,
2017-12-13 17:41:00,51.1,35.9,30.10,SW,233,5.0,5.0,56,0.00,,,0.01,Wunderground v.1.15,2017-12-13 16:41:00,
2017-12-13 17:51:00,51.0,35.8,30.10,SW,226,5.0,12.0,56,0.00,,,0.01,Wunderground v.1.15,2017-12-13 16:51:00,
2017-12-13 18:01:00,50.9,35.7,30.10,WSW,250,6.0,10.0,56,0.00,,,0.01,Wunderground v.1.15,2017-12-13 17:01:00,
2017-12-13 18:11:00,50.8,36.1,30.10,SSW,194,7.0,7.0,57,0.00,,,0.01,Wunderground v.1.15,2017-12-13 17:11:00,
2017-12-13 18:21:00,50.6,35.9,30.09,SW,226,7.0,13.0,57,0.00,,,0.01,Wunderground v.1.15,2017-12-13 17:21:00,
2017-12-13 18:31:00,50.5,35.8,30.09,SW,222,5.0,13.0,57,0.00,,,0.01,Wunderground v.1.15,2017-12-13 17:31:00,
2017-12-13 18:51:00,50.3,36.1,30.09,WSW,240,6.0,6.0,58,0.00,,,0.01,Wunderground v.1.15,2017-12-13 17:51:00,
2017-12-13 19:01:00,50.3,36.1,30.09,SW,219,5.0,11.0,58,0.00,,,0.01,Wunderground v.1.15,2017-12-13 18:01:00,
2017-12-13 19:11:00,50.3,36.1,30.09,South,180,5.0,5.0,58,0.00,,,0.01,Wunderground v.1.15,2017-12-13 18:11:00,
2017-12-13 19:21:00,50.1,35.9,30.10,SSW,202,4.0,4.0,58,0.00,,,0.01,Wunderground v.1.15,2017-12-13 18:21:00,
2017-12-13 19:41:00,49.9,36.1,30.09,SE,144,4.0,4.0,59,0.00,,,0.01,Wunderground v.1.15,2017-12-13 18:41:00,
2017-12-13 19:51:00,49.9,36.1,30.09,SW,215,4.0,9.0,59,0.00,,,0.01,Wunderground v.1.15,2017-12-13 18:51:00,
2017-12-13 20:21:00,49.7,35.9,30.09,SW,215,4.0,4.0,59,0.00,,,0.01,Wunderground v.1.15,2017-12-13 19:21:00,
2017-12-13 20:31:00,49.7,35.9,30.09,WSW,241,4.0,8.0,59,0.00,,,0.01,Wunderground v.1.15,2017-12-13 19:31:00,
2017-12-13 20:41:00,49.7,35.9,30.08,SW,221,3.0,10.0,59,0.00,,,0.01,Wunderground v.1.15,2017-12-13 19:41:00,